createdAt,value
2018-10-05T00:00:50.337Z,54.41
2018-10-05T00:01:50.242Z,54.44
2018-10-05T00:02:50.455Z,54.44
2018-10-05T00:03:50.531Z,54.45
2018-10-05T00:04:50.293Z,54.49
2018-10-05T00:05:50.371Z,54.48
2018-10-05T00:06:50.276Z,54.45
2018-10-05T00:07:50.212Z,54.44
2018-10-05T00:08:50.281Z,54.46
2018-10-05T00:09:50.301Z,54.4
2018-10-05T00:10:50.443Z,54.42
2018-10-05T00:11:50.368Z,54.44
2018-10-05T00:12:51.723Z,54.42
2018-10-05T00:13:50.635Z,54.48
2018-10-05T00:14:50.565Z,54.45
2018-10-05T00:15:50.295Z,54.45
2018-10-05T00:16:50.667Z,54.47
2018-10-05T00:17:50.778Z,54.42
2018-10-05T00:18:50.760Z,54.43
2018-10-05T00:19:50.264Z,54.46
2018-10-05T00:20:50.397Z,54.48
2018-10-05T00:21:50.402Z,54.46
2018-10-05T00:22:50.709Z,54.42
2018-10-05T00:23:50.232Z,54.4
2018-10-05T00:24:50.376Z,54.38
2018-10-05T00:25:50.714Z,54.42
2018-10-05T00:26:50.501Z,54.36
2018-10-05T00:27:50.430Z,54.4
2018-10-05T00:28:50.344Z,54.42
2018-10-05T00:29:50.669Z,54.43
2018-10-05T00:30:50.368Z,54.47
2018-10-05T00:31:50.478Z,54.45
2018-10-05T00:32:50.707Z,54.46
2018-10-05T00:33:50.380Z,54.49
2018-10-05T00:34:50.376Z,54.49
2018-10-05T00:35:50.351Z,54.51
2018-10-05T00:36:50.391Z,54.49
2018-10-05T00:37:50.414Z,54.51
2018-10-05T00:38:50.293Z,54.46
2018-10-05T00:39:50.343Z,54.45
2018-10-05T00:40:50.353Z,54.42
2018-10-05T00:41:50.240Z,54.45
2018-10-05T00:42:50.281Z,54.42
2018-10-05T00:43:50.192Z,54.51
2018-10-05T00:44:50.364Z,54.45
2018-10-05T00:45:50.331Z,54.48
2018-10-05T00:46:50.736Z,54.51
2018-10-05T00:47:50.162Z,54.49
2018-10-05T00:48:50.454Z,54.46
2018-10-05T00:49:50.288Z,54.46
2018-10-05T00:50:50.436Z,54.49
2018-10-05T00:51:50.551Z,54.44
2018-10-05T00:52:50.709Z,54.43
2018-10-05T00:53:50.358Z,54.41
2018-10-05T00:54:50.618Z,54.45
2018-10-05T00:55:51.128Z,54.42
2018-10-05T00:56:50.203Z,54.38
2018-10-05T00:57:50.442Z,54.38
2018-10-05T00:58:50.349Z,54.44
2018-10-05T00:59:50.320Z,54.43
2018-10-05T01:00:50.759Z,54.43
2018-10-05T01:01:51.964Z,54.47
2018-10-05T01:02:50.299Z,54.45
2018-10-05T01:03:50.477Z,54.41
2018-10-05T01:04:50.284Z,54.47
2018-10-05T01:05:50.392Z,54.44
2018-10-05T01:06:50.829Z,54.46
2018-10-05T01:07:50.355Z,54.46
2018-10-05T01:08:50.445Z,54.39
2018-10-05T01:09:50.406Z,54.46
2018-10-05T01:10:50.173Z,54.48
2018-10-05T01:11:50.734Z,54.47
2018-10-05T01:12:50.233Z,54.5
2018-10-05T01:13:50.240Z,54.46
2018-10-05T01:14:50.117Z,54.48
2018-10-05T01:15:50.131Z,54.5
2018-10-05T01:16:50.193Z,54.48
2018-10-05T01:17:50.375Z,54.45
2018-10-05T01:18:50.155Z,54.41
2018-10-05T01:19:50.273Z,54.48
2018-10-05T01:20:50.328Z,54.44
2018-10-05T01:21:50.213Z,54.44
2018-10-05T01:22:50.501Z,54.43
2018-10-05T01:23:50.303Z,54.37
2018-10-05T01:24:51.697Z,54.4
2018-10-05T01:25:50.229Z,54.4
2018-10-05T01:26:50.410Z,54.44
2018-10-05T01:27:50.268Z,54.45
2018-10-05T01:28:50.234Z,54.44
2018-10-05T01:29:50.235Z,54.46
2018-10-05T01:30:50.251Z,54.43
2018-10-05T01:31:50.484Z,54.43
2018-10-05T01:32:50.597Z,54.43
2018-10-05T01:33:50.136Z,54.48
2018-10-05T01:34:50.431Z,54.43
2018-10-05T01:35:50.367Z,54.42
2018-10-05T01:36:50.260Z,54.47
2018-10-05T01:37:50.364Z,54.48
2018-10-05T01:38:51.462Z,54.45
2018-10-05T01:39:50.230Z,54.44
2018-10-05T01:40:50.346Z,54.49
2018-10-05T01:41:50.324Z,54.48
2018-10-05T01:42:50.256Z,54.5
2018-10-05T01:43:50.299Z,54.52
2018-10-05T01:44:50.729Z,54.49
2018-10-05T01:45:50.215Z,54.56
2018-10-05T01:46:50.361Z,54.52
2018-10-05T01:47:50.094Z,54.46
2018-10-05T01:48:50.190Z,54.53
2018-10-05T01:49:50.588Z,54.54
2018-10-05T01:50:50.386Z,54.55
2018-10-05T01:51:50.300Z,54.59
2018-10-05T01:52:50.169Z,54.54
2018-10-05T01:53:50.312Z,54.57
2018-10-05T01:54:50.189Z,54.51
2018-10-05T01:55:50.378Z,54.55
2018-10-05T01:56:50.282Z,54.49
2018-10-05T01:57:50.205Z,54.49
2018-10-05T01:58:50.277Z,54.46
2018-10-05T01:59:50.270Z,54.46
2018-10-05T02:00:50.779Z,54.5
2018-10-05T02:01:50.297Z,54.44
2018-10-05T02:02:50.108Z,54.46
2018-10-05T02:03:50.137Z,54.41
2018-10-05T02:04:50.134Z,54.51
2018-10-05T02:05:50.336Z,54.5
2018-10-05T02:06:50.179Z,54.5
2018-10-05T02:07:50.171Z,54.46
2018-10-05T02:08:50.315Z,54.47
2018-10-05T02:09:50.238Z,54.54
2018-10-05T02:10:50.189Z,54.52
2018-10-05T02:11:50.289Z,54.49
2018-10-05T02:12:50.170Z,54.53
2018-10-05T02:13:50.421Z,54.51
2018-10-05T02:14:50.428Z,54.54
2018-10-05T02:15:50.228Z,54.53
2018-10-05T02:16:50.158Z,54.58
2018-10-05T02:17:50.204Z,54.53
2018-10-05T02:18:50.281Z,54.54
2018-10-05T02:19:50.176Z,54.52
2018-10-05T02:20:50.309Z,54.52
2018-10-05T02:21:50.205Z,54.5
2018-10-05T02:22:50.331Z,54.53
2018-10-05T02:23:50.344Z,54.53
2018-10-05T02:24:50.359Z,54.5
2018-10-05T02:25:50.468Z,54.5
2018-10-05T02:26:50.280Z,54.52
2018-10-05T02:27:50.228Z,54.51
2018-10-05T02:28:50.468Z,54.48
2018-10-05T02:29:50.388Z,54.44
2018-10-05T02:30:50.360Z,54.45
2018-10-05T02:31:50.360Z,54.45
2018-10-05T02:32:50.917Z,54.45
2018-10-05T02:33:50.186Z,54.49
2018-10-05T02:34:50.487Z,54.47
2018-10-05T02:35:50.492Z,54.45
2018-10-05T02:36:50.545Z,54.47
2018-10-05T02:37:50.314Z,54.45
2018-10-05T02:38:50.385Z,54.45
2018-10-05T02:39:50.361Z,54.47
2018-10-05T02:40:50.563Z,54.45
2018-10-05T02:41:51.639Z,54.47
2018-10-05T02:42:50.239Z,54.51
2018-10-05T02:43:50.620Z,54.46
2018-10-05T02:44:50.538Z,54.47
2018-10-05T02:45:50.253Z,54.41
2018-10-05T02:46:50.338Z,54.4
2018-10-05T02:47:50.323Z,54.45
2018-10-05T02:48:50.622Z,54.38
2018-10-05T02:49:50.368Z,54.42
2018-10-05T02:50:50.243Z,54.44
2018-10-05T02:51:50.284Z,54.4
2018-10-05T02:52:50.719Z,54.41
2018-10-05T02:53:50.088Z,54.39
2018-10-05T02:54:50.605Z,54.35
2018-10-05T02:55:50.141Z,54.44
2018-10-05T02:56:50.413Z,54.45
2018-10-05T02:57:50.378Z,54.42
2018-10-05T02:58:50.791Z,54.45
2018-10-05T02:59:50.340Z,54.41
2018-10-05T03:00:50.251Z,54.37
2018-10-05T03:01:50.103Z,54.39
2018-10-05T03:02:50.194Z,54.37
2018-10-05T03:03:50.345Z,54.39
2018-10-05T03:04:50.308Z,54.37
2018-10-05T03:05:50.195Z,54.35
2018-10-05T03:06:50.345Z,54.38
2018-10-05T03:07:50.430Z,54.46
2018-10-05T03:08:50.368Z,54.38
2018-10-05T03:09:50.387Z,54.44
2018-10-05T03:10:50.560Z,54.4
2018-10-05T03:11:50.438Z,54.38
2018-10-05T03:12:50.254Z,54.31
2018-10-05T03:13:50.274Z,54.35
2018-10-05T03:14:50.204Z,54.38
2018-10-05T03:15:50.216Z,54.41
2018-10-05T03:16:50.129Z,54.41
2018-10-05T03:17:50.270Z,54.43
2018-10-05T03:18:50.114Z,54.42
2018-10-05T03:19:51.622Z,54.4
2018-10-05T03:20:50.223Z,54.39
2018-10-05T03:21:50.105Z,54.44
2018-10-05T03:22:50.268Z,54.44
2018-10-05T03:23:50.266Z,54.4
2018-10-05T03:24:50.592Z,54.42
2018-10-05T03:25:50.368Z,54.37
2018-10-05T03:26:50.237Z,54.35
2018-10-05T03:27:50.173Z,54.35
2018-10-05T03:28:50.423Z,54.36
2018-10-05T03:29:50.122Z,54.37
2018-10-05T03:30:50.285Z,54.32
2018-10-05T03:31:50.182Z,54.36
2018-10-05T03:32:50.204Z,54.43
2018-10-05T03:33:50.323Z,54.36
2018-10-05T03:34:50.278Z,54.39
2018-10-05T03:35:50.301Z,54.39
2018-10-05T03:36:50.182Z,54.35
2018-10-05T03:37:50.258Z,54.41
2018-10-05T03:38:50.109Z,54.4
2018-10-05T03:39:50.417Z,54.36
2018-10-05T03:40:50.626Z,54.35
2018-10-05T03:41:50.167Z,54.38
2018-10-05T03:42:50.319Z,54.39
2018-10-05T03:43:50.358Z,54.37
2018-10-05T03:44:50.474Z,54.34
2018-10-05T03:45:50.613Z,54.35
2018-10-05T03:46:50.402Z,54.32
2018-10-05T03:47:50.321Z,54.34
2018-10-05T03:48:50.305Z,54.34
2018-10-05T03:49:50.358Z,54.32
2018-10-05T03:50:50.193Z,54.33
2018-10-05T03:51:50.357Z,54.35
2018-10-05T03:52:50.232Z,54.31
2018-10-05T03:53:50.214Z,54.39
2018-10-05T03:54:50.464Z,54.39
2018-10-05T03:55:50.202Z,54.41
2018-10-05T03:56:50.374Z,54.34
2018-10-05T03:57:50.121Z,54.42
2018-10-05T03:58:50.492Z,54.41
2018-10-05T03:59:50.525Z,54.42
2018-10-05T04:00:50.588Z,54.39
2018-10-05T04:01:50.043Z,54.41
2018-10-05T04:02:50.395Z,54.4
2018-10-05T04:03:50.441Z,54.39
2018-10-05T04:04:50.242Z,54.46
2018-10-05T04:05:50.505Z,54.44
2018-10-05T04:06:50.339Z,54.42
2018-10-05T04:07:50.172Z,54.42
2018-10-05T04:08:50.316Z,54.44
2018-10-05T04:09:50.167Z,54.52
2018-10-05T04:10:50.533Z,54.51
2018-10-05T04:11:50.266Z,54.47
2018-10-05T04:12:50.122Z,54.44
2018-10-05T04:13:50.446Z,54.42
2018-10-05T04:14:50.421Z,54.46
2018-10-05T04:15:50.587Z,54.46
2018-10-05T04:16:50.397Z,54.47
2018-10-05T04:17:50.177Z,54.41
2018-10-05T04:18:50.426Z,54.38
2018-10-05T04:19:50.179Z,54.41
2018-10-05T04:20:50.132Z,54.38
2018-10-05T04:21:50.423Z,54.42
2018-10-05T04:22:50.572Z,54.44
2018-10-05T04:23:50.208Z,54.44
2018-10-05T04:24:50.088Z,54.4
2018-10-05T04:25:50.761Z,54.47
2018-10-05T04:26:50.310Z,54.46
2018-10-05T04:27:50.082Z,54.43
2018-10-05T04:28:50.422Z,54.5
2018-10-05T04:29:50.297Z,54.42
2018-10-05T04:30:50.669Z,54.45
2018-10-05T04:31:50.208Z,54.45
2018-10-05T04:32:50.469Z,54.45
2018-10-05T04:33:50.559Z,54.47
2018-10-05T04:34:50.082Z,54.45
2018-10-05T04:35:50.183Z,54.46
2018-10-05T04:36:50.306Z,54.45
2018-10-05T04:37:50.274Z,54.45
2018-10-05T04:38:50.375Z,54.41
2018-10-05T04:39:50.279Z,54.42
2018-10-05T04:40:50.217Z,54.42
2018-10-05T04:41:50.079Z,54.39
2018-10-05T04:42:50.477Z,54.5
2018-10-05T04:43:50.356Z,54.44
2018-10-05T04:44:50.039Z,54.43
2018-10-05T04:45:50.339Z,54.39
2018-10-05T04:46:50.074Z,54.48
2018-10-05T04:47:50.400Z,54.46
2018-10-05T04:48:50.293Z,54.44
2018-10-05T04:49:50.347Z,54.4
2018-10-05T04:50:50.394Z,54.39
2018-10-05T04:51:50.276Z,54.45
2018-10-05T04:52:50.224Z,54.45
2018-10-05T04:53:50.161Z,54.4
2018-10-05T04:54:50.277Z,54.4
2018-10-05T04:55:50.287Z,54.42
2018-10-05T04:56:51.525Z,54.4
2018-10-05T04:57:50.097Z,54.48
2018-10-05T04:58:50.073Z,54.44
2018-10-05T04:59:50.047Z,54.41
2018-10-05T05:00:50.225Z,54.44
2018-10-05T05:01:50.053Z,54.44
2018-10-05T05:02:50.146Z,54.44
2018-10-05T05:03:50.219Z,54.41
2018-10-05T05:04:50.213Z,54.42
2018-10-05T05:05:50.351Z,54.36
2018-10-05T05:06:50.228Z,54.42
2018-10-05T05:07:50.133Z,54.42
2018-10-05T05:08:50.208Z,54.42
2018-10-05T05:09:50.038Z,54.41
2018-10-05T05:10:50.110Z,54.41
2018-10-05T05:11:50.221Z,54.36
2018-10-05T05:12:50.142Z,54.4
2018-10-05T05:13:50.146Z,54.38
2018-10-05T05:14:50.163Z,54.39
2018-10-05T05:15:50.148Z,54.39
2018-10-05T05:16:50.122Z,54.43
2018-10-05T05:17:50.159Z,54.41
2018-10-05T05:18:50.198Z,54.37
2018-10-05T05:19:50.089Z,54.41
2018-10-05T05:20:50.121Z,54.4
2018-10-05T05:21:50.186Z,54.35
2018-10-05T05:22:50.167Z,54.36
2018-10-05T05:23:50.200Z,54.38
2018-10-05T05:24:50.827Z,54.39
2018-10-05T05:25:50.191Z,54.37
2018-10-05T05:26:50.237Z,54.36
2018-10-05T05:27:50.379Z,54.32
2018-10-05T05:28:50.560Z,54.36
2018-10-05T05:29:50.081Z,54.34
2018-10-05T05:30:50.210Z,54.33
2018-10-05T05:31:50.430Z,54.35
2018-10-05T05:32:50.161Z,54.29
2018-10-05T05:33:50.486Z,54.38
2018-10-05T05:34:50.256Z,54.35
2018-10-05T05:35:50.609Z,54.38
2018-10-05T05:36:50.262Z,54.36
2018-10-05T05:37:50.412Z,54.4
2018-10-05T05:38:50.286Z,54.33
2018-10-05T05:39:50.038Z,54.38
2018-10-05T05:40:50.172Z,54.35
2018-10-05T05:41:50.517Z,54.36
2018-10-05T05:42:50.104Z,54.35
2018-10-05T05:43:50.254Z,54.33
2018-10-05T05:44:50.126Z,54.32
2018-10-05T05:45:50.340Z,54.32
2018-10-05T05:46:51.263Z,54.33
2018-10-05T05:47:50.357Z,54.35
2018-10-05T05:48:50.097Z,54.3
2018-10-05T05:49:50.158Z,54.33
2018-10-05T05:50:50.141Z,54.3
2018-10-05T05:51:50.157Z,54.29
2018-10-05T05:52:50.156Z,54.35
2018-10-05T05:53:50.618Z,54.33
2018-10-05T05:54:50.329Z,54.33
2018-10-05T05:55:50.416Z,54.32
2018-10-05T05:56:50.670Z,54.28
2018-10-05T05:57:50.303Z,54.27
2018-10-05T05:58:50.223Z,54.28
2018-10-05T05:59:50.071Z,54.29
2018-10-05T06:00:50.054Z,54.28
2018-10-05T06:01:50.133Z,54.25
2018-10-05T06:02:49.997Z,54.24
2018-10-05T06:03:50.281Z,54.26
2018-10-05T06:04:50.309Z,54.27
2018-10-05T06:05:50.324Z,54.27
2018-10-05T06:06:50.302Z,54.28
2018-10-05T06:07:50.105Z,54.28
2018-10-05T06:08:50.135Z,54.28
2018-10-05T06:09:50.149Z,54.26
2018-10-05T06:10:50.100Z,54.31
2018-10-05T06:11:50.016Z,54.25
2018-10-05T06:12:50.110Z,54.25
2018-10-05T06:13:50.329Z,54.25
2018-10-05T06:14:50.183Z,54.25
2018-10-05T06:15:50.548Z,54.26
2018-10-05T06:16:50.200Z,54.25
2018-10-05T06:17:50.467Z,54.18
2018-10-05T06:18:50.298Z,54.24
2018-10-05T06:19:50.225Z,54.21
2018-10-05T06:20:50.172Z,54.25
2018-10-05T06:21:52.578Z,54.24
2018-10-05T06:22:50.225Z,54.23
2018-10-05T06:23:50.102Z,54.23
2018-10-05T06:24:50.325Z,54.24
2018-10-05T06:25:50.169Z,54.23
2018-10-05T06:26:50.230Z,54.2
2018-10-05T06:27:50.240Z,54.21
2018-10-05T06:28:50.024Z,54.23
2018-10-05T06:29:50.177Z,54.23
2018-10-05T06:30:52.321Z,54.24
2018-10-05T06:31:50.124Z,54.23
2018-10-05T06:32:50.378Z,54.18
2018-10-05T06:33:50.097Z,54.25
2018-10-05T06:34:50.194Z,54.27
2018-10-05T06:35:50.229Z,54.21
2018-10-05T06:36:50.480Z,54.25
2018-10-05T06:37:50.165Z,54.17
2018-10-05T06:38:50.105Z,54.21
2018-10-05T06:39:50.236Z,54.24
2018-10-05T06:40:50.174Z,54.19
2018-10-05T06:41:51.205Z,54.22
2018-10-05T06:42:50.238Z,54.15
2018-10-05T06:43:50.149Z,54.23
2018-10-05T06:44:50.368Z,54.13
2018-10-05T06:45:50.138Z,54.17
2018-10-05T06:46:50.289Z,54.16
2018-10-05T06:47:50.367Z,54.14
2018-10-05T06:48:50.020Z,54.19
2018-10-05T06:49:50.239Z,54.14
2018-10-05T06:50:50.399Z,54.16
2018-10-05T06:51:50.206Z,54.16
2018-10-05T06:52:50.031Z,54.09
2018-10-05T06:53:50.167Z,54.1
2018-10-05T06:54:50.330Z,54.13
2018-10-05T06:55:50.443Z,54.09
2018-10-05T06:56:50.455Z,54.1
2018-10-05T06:57:50.128Z,54.07
2018-10-05T06:58:50.204Z,54.09
2018-10-05T06:59:50.343Z,54.08
2018-10-05T07:00:50.323Z,54.08
2018-10-05T07:01:51.637Z,54.01
2018-10-05T07:02:50.025Z,54.08
2018-10-05T07:03:49.947Z,54.06
2018-10-05T07:04:50.255Z,54.07
2018-10-05T07:05:50.324Z,54.03
2018-10-05T07:06:50.522Z,54.01
2018-10-05T07:07:52.015Z,54.06
2018-10-05T07:08:50.611Z,54.03
2018-10-05T07:09:49.998Z,54.02
2018-10-05T07:10:50.457Z,54.01
2018-10-05T07:11:50.227Z,54.01
2018-10-05T07:12:50.548Z,53.98
2018-10-05T07:13:50.214Z,54.01
2018-10-05T07:14:50.597Z,54.02
2018-10-05T07:15:51.239Z,53.97
2018-10-05T07:16:51.019Z,54.01
2018-10-05T07:17:50.443Z,54
2018-10-05T07:18:50.180Z,54
2018-10-05T07:19:50.204Z,53.95
2018-10-05T07:20:50.397Z,54
2018-10-05T07:21:50.117Z,53.94
2018-10-05T07:22:50.244Z,53.93
2018-10-05T07:23:50.045Z,53.95
2018-10-05T07:24:50.188Z,53.96
2018-10-05T07:25:50.260Z,53.98
2018-10-05T07:26:50.074Z,53.97
2018-10-05T07:27:49.984Z,53.97
2018-10-05T07:28:51.196Z,53.93
2018-10-05T07:29:50.281Z,53.96
2018-10-05T07:30:49.921Z,53.93
2018-10-05T07:31:51.022Z,53.92
2018-10-05T07:32:50.196Z,53.95
2018-10-05T07:33:49.996Z,53.95
2018-10-05T07:34:50.456Z,53.96
2018-10-05T07:35:50.122Z,53.96
2018-10-05T07:36:51.471Z,53.94
2018-10-05T07:37:50.544Z,53.94
2018-10-05T07:38:50.086Z,53.97
2018-10-05T07:39:50.362Z,53.93
2018-10-05T07:40:50.173Z,53.97
2018-10-05T07:41:50.089Z,53.98
2018-10-05T07:42:50.460Z,54.01
2018-10-05T07:43:50.366Z,53.97
2018-10-05T07:44:50.257Z,53.97
2018-10-05T07:45:50.298Z,53.99
2018-10-05T07:46:50.345Z,54.01
2018-10-05T07:47:49.934Z,54.02
2018-10-05T07:48:50.148Z,53.99
2018-10-05T07:49:50.072Z,54.02
2018-10-05T07:50:50.426Z,54.01
2018-10-05T07:51:51.699Z,54.02
2018-10-05T07:52:50.260Z,53.97
2018-10-05T07:53:50.142Z,54.02
2018-10-05T07:54:50.517Z,54.02
2018-10-05T07:55:49.908Z,53.99
2018-10-05T07:56:50.242Z,54.02
2018-10-05T07:57:51.021Z,53.98
2018-10-05T07:58:50.111Z,54.06
2018-10-05T07:59:50.118Z,54.02
2018-10-05T08:00:50.189Z,53.99
2018-10-05T08:01:50.247Z,53.98
2018-10-05T08:02:50.296Z,54.02
2018-10-05T08:03:50.136Z,54.01
2018-10-05T08:04:50.051Z,54
2018-10-05T08:05:50.346Z,54
2018-10-05T08:06:50.086Z,54.02
2018-10-05T08:07:50.120Z,54.03
2018-10-05T08:08:50.231Z,54.05
2018-10-05T08:09:50.088Z,54.05
2018-10-05T08:10:50.394Z,54.05
2018-10-05T08:11:50.356Z,54.09
2018-10-05T08:12:50.020Z,54.06
2018-10-05T08:13:50.272Z,54.04
2018-10-05T08:14:50.012Z,54.04
2018-10-05T08:15:50.100Z,54.04
2018-10-05T08:16:49.994Z,54.05
2018-10-05T08:17:50.392Z,54.03
2018-10-05T08:18:50.469Z,54.05
2018-10-05T08:19:50.120Z,54.06
2018-10-05T08:20:50.400Z,54.07
2018-10-05T08:21:50.217Z,54.09
2018-10-05T08:22:50.321Z,54.08
2018-10-05T08:23:49.990Z,54.06
2018-10-05T08:24:50.212Z,54.12
2018-10-05T08:25:50.257Z,54.08
2018-10-05T08:26:50.282Z,54.1
2018-10-05T08:27:51.107Z,54.08
2018-10-05T08:28:50.436Z,54.07
2018-10-05T08:29:50.181Z,54.06
2018-10-05T08:30:50.256Z,54.1
2018-10-05T08:31:50.322Z,54.06
2018-10-05T08:32:50.148Z,54.07
2018-10-05T08:33:51.126Z,54.04
2018-10-05T08:34:50.131Z,54.06
2018-10-05T08:35:50.129Z,54.06
2018-10-05T08:36:50.477Z,54.09
2018-10-05T08:37:50.462Z,54.13
2018-10-05T08:38:50.133Z,54.08
2018-10-05T08:39:52.340Z,54.08
2018-10-05T08:40:50.054Z,54.12
2018-10-05T08:41:50.776Z,54.1
2018-10-05T08:42:50.196Z,54.13
2018-10-05T08:43:50.705Z,54.06
2018-10-05T08:44:50.268Z,54.09
2018-10-05T08:45:50.918Z,54.1
2018-10-05T08:46:50.089Z,54.08
2018-10-05T08:47:50.125Z,54.09
2018-10-05T08:48:50.663Z,54.11
2018-10-05T08:49:49.988Z,54.08
2018-10-05T08:50:50.087Z,54.11
2018-10-05T08:51:51.808Z,54.11
2018-10-05T08:52:50.464Z,54.1
2018-10-05T08:53:49.957Z,54.09
2018-10-05T08:54:50.234Z,54.11
2018-10-05T08:55:50.406Z,54.09
2018-10-05T08:56:50.163Z,54.14
2018-10-05T08:57:50.184Z,54.13
2018-10-05T08:58:49.966Z,54.1
2018-10-05T08:59:51.163Z,54.09
2018-10-05T09:00:50.539Z,54.1
2018-10-05T09:01:50.060Z,54.15
2018-10-05T09:02:49.987Z,54.12
2018-10-05T09:03:50.144Z,54.15
2018-10-05T09:04:50.449Z,54.11
2018-10-05T09:05:51.501Z,54.12
2018-10-05T09:06:50.353Z,54.12
2018-10-05T09:07:50.053Z,54.14
2018-10-05T09:08:50.644Z,54.1
2018-10-05T09:09:50.364Z,54.12
2018-10-05T09:10:50.105Z,54.1
2018-10-05T09:11:50.115Z,54.11
2018-10-05T09:12:50.025Z,54.14
2018-10-05T09:13:49.905Z,54.09
2018-10-05T09:14:50.249Z,54.15
2018-10-05T09:15:50.293Z,54.14
2018-10-05T09:16:50.325Z,54.13
2018-10-05T09:17:51.705Z,54.16
2018-10-05T09:18:50.044Z,54.14
2018-10-05T09:19:50.120Z,54.11
2018-10-05T09:20:49.943Z,54.12
2018-10-05T09:21:49.910Z,54.14
2018-10-05T09:22:50.297Z,54.11
2018-10-05T09:23:50.107Z,54.08
2018-10-05T09:24:50.129Z,54.11
2018-10-05T09:25:49.893Z,54.11
2018-10-05T09:26:50.381Z,54.07
2018-10-05T09:27:50.011Z,54.11
2018-10-05T09:28:50.197Z,54.09
2018-10-05T09:29:50.140Z,54.09
2018-10-05T09:30:50.430Z,54.12
2018-10-05T09:31:50.137Z,54.14
2018-10-05T09:32:49.974Z,54.13
2018-10-05T09:33:50.017Z,54.14
2018-10-05T09:34:50.139Z,54.12
2018-10-05T09:35:50.021Z,54.12
2018-10-05T09:36:50.367Z,54.16
2018-10-05T09:37:52.005Z,54.17
2018-10-05T09:38:50.274Z,54.14
2018-10-05T09:39:50.091Z,54.18
2018-10-05T09:40:49.938Z,54.13
2018-10-05T09:41:49.965Z,54.12
2018-10-05T09:42:50.294Z,54.14
2018-10-05T09:43:50.280Z,54.13
2018-10-05T09:44:51.277Z,54.16
2018-10-05T09:45:50.151Z,54.14
2018-10-05T09:46:50.427Z,54.14
2018-10-05T09:47:50.599Z,54.13
2018-10-05T09:48:50.356Z,54.17
2018-10-05T09:49:50.198Z,54.18
2018-10-05T09:50:49.976Z,54.16
2018-10-05T09:51:50.166Z,54.15
2018-10-05T09:52:49.921Z,54.13
2018-10-05T09:53:50.129Z,54.15
2018-10-05T09:54:50.248Z,54.16
2018-10-05T09:55:50.324Z,54.18
2018-10-05T09:56:50.186Z,54.2
2018-10-05T09:57:50.097Z,54.17
2018-10-05T09:58:50.322Z,54.21
2018-10-05T09:59:51.601Z,54.18
2018-10-05T10:00:50.338Z,54.16
2018-10-05T10:01:50.442Z,54.16
2018-10-05T10:02:50.365Z,54.17
2018-10-05T10:03:49.859Z,54.16
2018-10-05T10:04:49.932Z,54.22
2018-10-05T10:05:50.167Z,54.18
2018-10-05T10:06:50.184Z,54.2
2018-10-05T10:07:50.843Z,54.23
2018-10-05T10:08:50.026Z,54.19
2018-10-05T10:09:50.389Z,54.18
2018-10-05T10:10:50.194Z,54.15
2018-10-05T10:11:50.262Z,54.19
2018-10-05T10:12:49.965Z,54.19
2018-10-05T10:13:50.988Z,54.22
2018-10-05T10:14:49.887Z,54.18
2018-10-05T10:15:50.185Z,54.25
2018-10-05T10:16:50.193Z,54.19
2018-10-05T10:17:50.228Z,54.15
2018-10-05T10:18:50.024Z,54.18
2018-10-05T10:19:50.456Z,54.21
2018-10-05T10:20:50.331Z,54.21
2018-10-05T10:21:50.322Z,54.23
2018-10-05T10:22:50.841Z,54.26
2018-10-05T10:23:50.113Z,54.25
2018-10-05T10:24:50.218Z,54.24
2018-10-05T10:25:50.197Z,54.26
2018-10-05T10:26:50.241Z,54.21
2018-10-05T10:27:50.441Z,54.22
2018-10-05T10:28:52.125Z,54.25
2018-10-05T10:29:50.027Z,54.19
2018-10-05T10:30:50.000Z,54.19
2018-10-05T10:31:50.208Z,54.21
2018-10-05T10:32:50.002Z,54.2
2018-10-05T10:33:50.191Z,54.19
2018-10-05T10:34:50.683Z,54.22
2018-10-05T10:35:50.291Z,54.19
2018-10-05T10:36:51.466Z,54.19
2018-10-05T10:37:50.130Z,54.18
2018-10-05T10:38:50.102Z,54.22
2018-10-05T10:39:50.437Z,54.22
2018-10-05T10:40:50.577Z,54.33
2018-10-05T10:41:50.051Z,54.36
2018-10-05T10:42:50.073Z,54.28
2018-10-05T10:43:49.944Z,54.25
2018-10-05T10:44:50.043Z,54.26
2018-10-05T10:45:50.066Z,54.28
2018-10-05T10:46:50.100Z,54.27
2018-10-05T10:47:50.143Z,54.26
2018-10-05T10:48:50.165Z,54.28
2018-10-05T10:49:50.023Z,54.24
2018-10-05T10:50:50.014Z,54.26
2018-10-05T10:51:50.400Z,54.28
2018-10-05T10:52:49.953Z,54.28
2018-10-05T10:53:50.440Z,54.26
2018-10-05T10:54:50.080Z,54.22
2018-10-05T10:55:50.053Z,54.28
2018-10-05T10:56:49.976Z,54.3
2018-10-05T10:57:50.546Z,54.3
2018-10-05T10:58:49.978Z,54.27
2018-10-05T10:59:49.924Z,54.31
2018-10-05T11:00:51.840Z,54.3
2018-10-05T11:01:50.035Z,54.27
2018-10-05T11:02:49.968Z,54.33
2018-10-05T11:03:50.272Z,54.32
2018-10-05T11:04:52.041Z,54.31
2018-10-05T11:05:50.142Z,54.32
2018-10-05T11:06:50.300Z,54.32
2018-10-05T11:07:50.110Z,54.28
2018-10-05T11:08:50.230Z,54.3
2018-10-05T11:09:50.129Z,54.29
2018-10-05T11:10:50.023Z,54.29
2018-10-05T11:11:49.964Z,54.36
2018-10-05T11:12:50.201Z,54.33
2018-10-05T11:13:50.213Z,54.34
2018-10-05T11:14:50.080Z,54.26
2018-10-05T11:15:50.059Z,54.33
2018-10-05T11:16:50.197Z,54.38
2018-10-05T11:17:50.479Z,54.52
2018-10-05T11:18:50.022Z,54.53
2018-10-05T11:19:50.070Z,54.48
2018-10-05T11:20:49.923Z,54.49
2018-10-05T11:21:50.071Z,54.49
2018-10-05T11:22:50.030Z,54.41
2018-10-05T11:23:50.060Z,54.42
2018-10-05T11:24:50.186Z,54.43
2018-10-05T11:25:49.948Z,54.42
2018-10-05T11:26:49.982Z,54.39
2018-10-05T11:27:50.238Z,54.39
2018-10-05T11:28:50.079Z,54.44
2018-10-05T11:29:50.736Z,54.37
2018-10-05T11:30:50.046Z,54.41
2018-10-05T11:31:50.297Z,54.44
2018-10-05T11:32:50.019Z,54.41
2018-10-05T11:33:50.240Z,54.44
2018-10-05T11:34:49.960Z,54.45
2018-10-05T11:35:50.199Z,54.4
2018-10-05T11:36:50.202Z,54.4
2018-10-05T11:37:50.150Z,54.36
2018-10-05T11:38:50.431Z,54.41
2018-10-05T11:39:50.059Z,54.39
2018-10-05T11:40:51.202Z,54.37
2018-10-05T11:41:50.043Z,54.39
2018-10-05T11:42:50.080Z,54.37
2018-10-05T11:43:50.115Z,54.37
2018-10-05T11:44:49.987Z,54.37
2018-10-05T11:45:50.047Z,54.37
2018-10-05T11:46:50.017Z,54.37
2018-10-05T11:47:50.074Z,54.36
2018-10-05T11:48:50.295Z,54.34
2018-10-05T11:49:50.281Z,54.36
2018-10-05T11:50:49.949Z,54.39
2018-10-05T11:51:50.385Z,54.35
2018-10-05T11:52:50.045Z,54.37
2018-10-05T11:53:49.951Z,54.36
2018-10-05T11:54:50.017Z,54.38
2018-10-05T11:55:49.914Z,54.39
2018-10-05T11:56:50.088Z,54.41
2018-10-05T11:57:50.229Z,54.35
2018-10-05T11:58:50.021Z,54.42
2018-10-05T11:59:51.662Z,54.36
2018-10-05T12:00:50.330Z,54.38
2018-10-05T12:01:49.960Z,54.44
2018-10-05T12:02:50.216Z,54.4
2018-10-05T12:03:50.411Z,54.42
2018-10-05T12:04:50.531Z,54.41
2018-10-05T12:05:50.294Z,54.42
2018-10-05T12:06:50.297Z,54.42
2018-10-05T12:07:50.264Z,54.43
2018-10-05T12:08:49.979Z,54.43
2018-10-05T12:09:49.873Z,54.4
2018-10-05T12:10:50.127Z,54.41
2018-10-05T12:11:49.900Z,54.43
2018-10-05T12:12:49.933Z,54.44
2018-10-05T12:13:51.147Z,54.44
2018-10-05T12:14:50.188Z,54.42
2018-10-05T12:15:50.027Z,54.42
2018-10-05T12:16:49.881Z,54.41
2018-10-05T12:17:49.993Z,54.42
2018-10-05T12:18:50.062Z,54.43
2018-10-05T12:19:50.522Z,54.41
2018-10-05T12:20:49.977Z,54.41
2018-10-05T12:21:50.047Z,54.4
2018-10-05T12:22:49.909Z,54.44
2018-10-05T12:23:50.004Z,54.4
2018-10-05T12:24:50.153Z,54.44
2018-10-05T12:25:49.999Z,54.44
2018-10-05T12:26:50.073Z,54.45
2018-10-05T12:27:49.900Z,54.44
2018-10-05T12:28:50.092Z,54.46
2018-10-05T12:29:51.096Z,54.44
2018-10-05T12:30:50.265Z,54.42
2018-10-05T12:31:49.925Z,54.44
2018-10-05T12:32:49.815Z,54.4
2018-10-05T12:33:50.017Z,54.43
2018-10-05T12:34:50.613Z,54.42
2018-10-05T12:35:50.152Z,54.46
2018-10-05T12:36:50.074Z,54.43
2018-10-05T12:37:50.156Z,54.45
2018-10-05T12:38:50.237Z,54.47
2018-10-05T12:39:50.075Z,54.43
2018-10-05T12:40:49.968Z,54.47
2018-10-05T12:41:50.588Z,54.45
2018-10-05T12:42:50.364Z,54.49
2018-10-05T12:43:50.079Z,54.49
2018-10-05T12:44:50.402Z,54.46
2018-10-05T12:45:49.908Z,54.48
2018-10-05T12:46:50.087Z,54.49
2018-10-05T12:47:49.878Z,54.5
2018-10-05T12:48:50.151Z,54.48
2018-10-05T12:49:49.950Z,54.53
2018-10-05T12:50:49.948Z,54.54
2018-10-05T12:51:49.982Z,54.51
2018-10-05T12:52:50.302Z,54.51
2018-10-05T12:53:50.270Z,54.56
2018-10-05T12:54:49.955Z,54.53
2018-10-05T12:55:50.042Z,54.53